Time;durP1;ratioP1;P1;durP2;ratioP2;P2;SDS_P1;SDS_P2;PMS_P1;PMS_P2;Temp;Humidity;BMP_temperature;BMP_pressure;BME280_temperature;BME280_humidity;BME280_pressure;Samples;Min_cycle;Max_cycle;Signal;HPM_P1;HPM_P2
2021/09/15 00:01:39;;;;;;;12.45;7.22;;;;;;;16.04;63.74;100838.62;1756318;80;21555;-61
2021/09/15 00:04:06;;;;;;;16.20;8.18;;;;;;;15.99;63.73;100842.21;1768433;79;20987;-62
2021/09/15 00:06:33;;;;;;;14.98;8.38;;;;;;;15.97;63.76;100848.16;1741209;79;21128;-62
2021/09/15 00:08:59;;;;;;;16.62;7.47;;;;;;;16.00;63.58;100842.53;1773085;79;21140;-62
2021/09/15 00:11:27;;;;;;;8.78;4.90;;;;;;;16.03;63.50;100848.88;1766470;80;21058;-62
2021/09/15 00:13:56;;;;;;;10.78;6.22;;;;;;;16.03;62.93;100852.86;1764220;79;21535;-63
2021/09/15 00:16:23;;;;;;;11.90;5.33;;;;;;;16.02;62.82;100851.21;1737659;80;21047;-62
2021/09/15 00:18:51;;;;;;;14.47;8.75;;;;;;;16.00;62.79;100857.13;1767470;80;21094;-63
2021/09/15 00:21:19;;;;;;;18.35;10.93;;;;;;;15.97;62.72;100861.44;1764276;79;21910;-62
2021/09/15 00:23:45;;;;;;;13.13;7.45;;;;;;;15.94;62.66;100861.22;1767904;80;21109;-63
2021/09/15 00:26:14;;;;;;;14.40;8.13;;;;;;;15.89;62.57;100866.13;1732043;82;21073;-63
2021/09/15 00:28:40;;;;;;;16.52;9.13;;;;;;;15.84;62.65;100871.05;1766503;80;21063;-62
2021/09/15 00:31:07;;;;;;;12.47;7.28;;;;;;;15.78;62.77;100871.14;1763429;80;21826;-61
2021/09/15 00:33:33;;;;;;;12.65;7.00;;;;;;;15.75;62.81;100867.45;1765106;79;21116;-61
2021/09/15 00:36:00;;;;;;;12.68;8.70;;;;;;;15.70;62.90;100867.48;1769083;80;21085;-62
2021/09/15 00:38:26;;;;;;;15.35;7.80;;;;;;;15.70;62.84;100870.99;1731637;81;21177;-62
2021/09/15 00:40:56;;;;;;;13.08;6.95;;;;;;;15.74;62.78;100867.05;1761569;79;21138;-61
2021/09/15 00:43:23;;;;;;;13.80;8.65;;;;;;;15.71;62.80;100863.36;1765422;79;21448;-62
2021/09/15 00:45:49;;;;;;;15.83;8.35;;;;;;;15.68;62.83;100857.02;1738289;80;21079;-62
2021/09/15 00:48:17;;;;;;;17.20;8.00;;;;;;;15.63;62.99;100860.59;1767502;79;21558;-61
2021/09/15 00:50:44;;;;;;;14.43;6.28;;;;;;;15.58;63.10;100862.84;1735822;80;21099;-61
2021/09/15 00:53:11;;;;;;;10.03;5.92;;;;;;;15.52;63.26;100852.83;1763663;79;21067;-61
2021/09/15 00:55:38;;;;;;;10.00;5.72;;;;;;;15.47;63.30;100861.70;1763843;79;21570;-61
2021/09/15 00:58:06;;;;;;;8.68;4.95;;;;;;;15.39;63.38;100863.23;1757779;80;21847;-62
2021/09/15 01:00:32;;;;;;;8.10;4.47;;;;;;;15.33;63.66;100857.66;1749630;79;21078;-63
2021/09/15 01:03:01;;;;;;;10.95;5.12;;;;;;;15.26;63.92;100865.84;1734798;80;21561;-62
2021/09/15 01:05:29;;;;;;;7.60;4.25;;;;;;;15.19;64.34;100870.87;1715847;81;21048;-62
2021/09/15 01:07:58;;;;;;;13.20;4.08;;;;;;;15.18;64.66;100870.51;1716015;81;21075;-62
2021/09/15 01:10:25;;;;;;;8.13;3.65;;;;;;;15.20;64.45;100868.58;1741911;80;22051;-62
2021/09/15 01:12:54;;;;;;;5.92;3.67;;;;;;;15.21;64.39;100879.05;1739073;79;21028;-63
2021/09/15 01:17:54;;;;;;;6.95;4.05;;;;;;;15.22;64.40;100879.88;1784322;78;22491;-60
2021/09/15 01:20:39;;;;;;;8.00;4.28;;;;;;;15.14;64.28;100881.06;1743478;80;20951;-60
2021/09/15 01:23:28;;;;;;;9.53;4.37;;;;;;;15.13;64.25;100879.38;1747817;80;21990;-60
2021/09/15 01:25:56;;;;;;;8.23;4.83;;;;;;;15.10;64.06;100878.36;1718726;80;21458;-60
2021/09/15 01:28:40;;;;;;;12.13;4.60;;;;;;;15.07;64.08;100881.28;1744830;80;20897;-60
2021/09/15 01:31:09;;;;;;;8.45;4.30;;;;;;;15.01;64.14;100884.84;1727880;81;21137;-60
2021/09/15 01:33:36;;;;;;;7.40;4.30;;;;;;;14.98;64.29;100881.64;1729297;81;21652;-60
2021/09/15 01:36:03;;;;;;;10.32;3.87;;;;;;;14.91;64.28;100881.36;1721787;80;21173;-60
2021/09/15 01:38:32;;;;;;;6.00;3.33;;;;;;;14.89;64.19;100880.63;1739267;81;21019;-60
2021/09/15 01:40:59;;;;;;;8.03;3.95;;;;;;;14.92;64.04;100876.38;1750888;80;21553;-60
2021/09/15 01:43:26;;;;;;;8.18;4.35;;;;;;;14.94;63.95;100874.42;1745324;80;21047;-60
2021/09/15 01:45:53;;;;;;;8.28;4.28;;;;;;;14.94;63.98;100879.73;1749012;80;21350;-60
2021/09/15 01:48:21;;;;;;;11.05;4.35;;;;;;;14.91;63.86;100869.43;1749513;80;21168;-60
2021/09/15 01:50:50;;;;;;;8.68;4.05;;;;;;;14.89;63.86;100869.20;1753686;80;20998;-60
2021/09/15 01:53:19;;;;;;;6.95;3.98;;;;;;;14.85;63.80;100870.80;1718671;81;21667;-60
2021/09/15 01:55:47;;;;;;;7.72;4.05;;;;;;;14.82;63.78;100868.92;1670987;82;21059;-60
2021/09/15 01:58:20;;;;;;;8.90;4.37;;;;;;;14.77;63.86;100866.68;1713386;82;21034;-60
2021/09/15 02:00:54;;;;;;;7.37;4.37;;;;;;;14.71;63.84;100871.69;1669900;82;21133;-60
2021/09/15 02:03:22;;;;;;;7.12;3.92;;;;;;;14.64;64.05;100872.27;1706770;82;21177;-60
2021/09/15 02:05:51;;;;;;;7.22;3.83;;;;;;;14.58;64.40;100878.06;1677766;83;21082;-60
2021/09/15 02:08:20;;;;;;;7.83;3.95;;;;;;;14.54;64.54;100879.33;1705537;82;21154;-60
2021/09/15 02:11:06;;;;;;;6.47;3.50;;;;;;;14.56;64.68;100879.16;1690449;83;21619;-60
2021/09/15 02:13:33;;;;;;;7.15;4.12;;;;;;;14.58;64.67;100879.89;1697479;82;21840;-60
2021/09/15 02:16:00;;;;;;;7.53;4.05;;;;;;;14.55;64.83;100879.66;1672179;83;21122;-60
2021/09/15 02:18:27;;;;;;;7.72;3.98;;;;;;;14.50;64.97;100880.06;1685172;84;21508;-60
2021/09/15 02:20:55;;;;;;;7.78;3.50;;;;;;;14.46;65.07;100883.97;1665085;80;21070;-60
2021/09/15 02:23:25;;;;;;;8.65;4.15;;;;;;;14.39;65.11;100881.98;1716776;80;21074;-60
2021/09/15 02:25:54;;;;;;;8.50;4.20;;;;;;;14.32;65.07;100888.30;1728277;80;21144;-61
2021/09/15 02:28:22;;;;;;;8.25;4.50;;;;;;;14.28;65.01;100890.88;1733981;80;21529;-61
2021/09/15 02:31:01;;;;;;;9.23;3.72;;;;;;;14.23;65.02;100891.28;1731553;80;21478;-61
2021/09/15 02:33:29;;;;;;;9.40;4.22;;;;;;;14.19;64.97;100893.00;1734078;80;21538;-61
2021/09/15 02:36:01;;;;;;;7.72;4.22;;;;;;;14.13;64.95;100893.88;1734651;80;21110;-61
2021/09/15 02:38:46;;;;;;;7.75;3.67;;;;;;;14.15;64.92;100887.63;1724334;81;21139;-61
2021/09/15 02:41:20;;;;;;;6.78;3.58;;;;;;;14.19;64.93;100890.34;1728734;80;21074;-61
2021/09/15 02:43:57;;;;;;;7.00;3.60;;;;;;;14.21;64.92;100895.05;1729023;80;21585;-61
2021/09/15 02:46:37;;;;;;;7.22;3.83;;;;;;;14.20;64.88;100885.42;1692604;81;21519;-59
2021/09/15 02:49:28;;;;;;;7.08;3.80;;;;;;;14.16;65.00;100891.97;1684579;84;21176;-59
2021/09/15 02:51:55;;;;;;;8.05;4.17;;;;;;;14.13;65.00;100899.67;1641262;85;21266;-59
2021/09/15 02:54:24;;;;;;;7.62;4.30;;;;;;;14.10;64.99;100902.12;1661750;84;21498;-59
2021/09/15 02:57:09;;;;;;;9.40;4.22;;;;;;;14.07;64.98;100905.48;1736547;80;21088;-61
2021/09/15 02:59:41;;;;;;;7.60;4.00;;;;;;;14.01;64.98;100903.39;1726931;81;21012;-61
2021/09/15 03:02:11;;;;;;;7.37;3.60;;;;;;;13.98;64.93;100907.63;1727473;80;21120;-60
2021/09/15 03:04:55;;;;;;;8.80;4.00;;;;;;;13.94;64.86;100906.55;1677965;83;21105;-61
2021/09/15 03:07:39;;;;;;;7.12;3.58;;;;;;;13.93;64.87;100903.55;1722865;80;21106;-61
2021/09/15 03:10:09;;;;;;;7.70;4.28;;;;;;;13.96;64.73;100905.11;1732947;80;21174;-63
2021/09/15 03:12:35;;;;;;;6.87;3.40;;;;;;;13.98;64.70;100912.42;1735239;80;21189;-61
2021/09/15 03:15:06;;;;;;;7.58;3.33;;;;;;;13.98;64.68;100907.63;1735629;80;21023;-61
2021/09/15 03:17:32;;;;;;;7.05;3.90;;;;;;;13.97;64.62;100905.47;1722779;80;21243;-61
2021/09/15 03:20:00;;;;;;;6.55;3.20;;;;;;;13.97;64.51;100906.79;1740140;80;22012;-60
2021/09/15 03:22:28;;;;;;;8.98;4.83;;;;;;;13.93;64.36;100911.48;1741671;80;22869;-61
2021/09/15 03:24:57;;;;;;;9.18;4.55;;;;;;;13.89;64.42;100910.08;1745776;80;21024;-60
2021/09/15 03:27:23;;;;;;;8.20;3.95;;;;;;;13.85;64.53;100913.11;1691669;80;21790;-59
2021/09/15 03:29:50;;;;;;;6.83;4.08;;;;;;;13.80;64.63;100914.85;1721184;80;21197;-60
2021/09/15 03:32:16;;;;;;;8.18;3.95;;;;;;;13.74;64.80;100912.72;1743396;80;21393;-60
2021/09/15 03:34:43;;;;;;;7.15;3.50;;;;;;;13.70;64.98;100911.28;1744718;80;21093;-60
2021/09/15 03:37:09;;;;;;;7.25;3.52;;;;;;;13.69;65.11;100909.14;1717261;80;21515;-60
2021/09/15 03:39:36;;;;;;;9.15;3.17;;;;;;;13.75;65.04;100911.73;1719483;81;21093;-60
2021/09/15 03:42:03;;;;;;;5.75;3.33;;;;;;;13.82;64.90;100912.05;1716323;80;21177;-60
2021/09/15 03:44:30;;;;;;;6.75;3.65;;;;;;;13.86;64.79;100918.27;1738250;80;21498;-61
2021/09/15 03:46:58;;;;;;;7.10;3.25;;;;;;;13.84;64.73;100920.22;1737208;81;21494;-65
2021/09/15 03:49:25;;;;;;;11.53;4.15;;;;;;;13.82;64.80;100926.59;1736764;80;21074;-65
2021/09/15 03:51:52;;;;;;;8.48;4.17;;;;;;;13.79;64.73;100922.91;1738852;80;21141;-59
2021/09/15 03:54:19;;;;;;;6.47;3.25;;;;;;;13.77;64.51;100923.05;1723322;81;22851;-59
2021/09/15 03:56:45;;;;;;;8.70;4.12;;;;;;;13.74;64.42;100924.63;1735903;80;21637;-59
2021/09/15 03:59:13;;;;;;;8.53;3.87;;;;;;;13.70;64.48;100929.80;1743263;80;21062;-59
2021/09/15 04:01:41;;;;;;;7.30;3.55;;;;;;;13.63;64.65;100924.19;1737971;80;21104;-59
2021/09/15 04:04:08;;;;;;;10.18;4.30;;;;;;;13.54;64.83;100928.94;1739904;80;21079;-59
2021/09/15 04:06:35;;;;;;;7.53;3.62;;;;;;;13.54;64.90;100933.73;1721937;80;21121;-59
2021/09/15 04:09:05;;;;;;;7.10;3.30;;;;;;;13.56;64.93;100933.12;1741771;80;21043;-59
2021/09/15 04:11:33;;;;;;;8.23;4.12;;;;;;;13.61;65.03;100932.73;1741192;80;21121;-59
2021/09/15 04:14:01;;;;;;;9.83;4.80;;;;;;;13.63;65.06;100936.58;1738234;80;21072;-59
2021/09/15 04:16:29;;;;;;;13.55;4.62;;;;;;;13.64;65.03;100937.77;1744103;80;21128;-59
2021/09/15 04:18:58;;;;;;;7.05;4.00;;;;;;;13.61;64.96;100943.32;1745657;80;21491;-59
2021/09/15 04:21:24;;;;;;;8.05;4.17;;;;;;;13.58;64.86;100937.45;1741265;80;21074;-60
2021/09/15 04:31:52;;;;;;;8.20;3.97;;;;;;;13.51;64.78;100949.86;1743848;80;21086;-61
2021/09/15 04:34:19;;;;;;;10.85;4.45;;;;;;;13.47;65.03;100955.05;1745977;80;21121;-60
2021/09/15 04:36:51;;;;;;;11.28;4.42;;;;;;;13.50;65.13;100953.95;1741848;80;21054;-58
2021/09/15 04:39:19;;;;;;;8.70;4.10;;;;;;;13.55;64.88;100953.94;1723130;81;21074;-58
2021/09/15 04:41:46;;;;;;;8.98;3.85;;;;;;;13.62;64.72;100954.27;1751311;80;21051;-59
2021/09/15 04:44:12;;;;;;;7.90;4.58;;;;;;;13.69;64.58;100955.91;1743104;80;21154;-59
2021/09/15 04:46:39;;;;;;;9.80;4.28;;;;;;;13.72;64.07;100954.33;1746290;80;21042;-59
2021/09/15 04:49:06;;;;;;;11.50;5.37;;;;;;;13.71;63.75;100961.41;1748924;80;21522;-59
2021/09/15 04:51:34;;;;;;;9.40;4.12;;;;;;;13.70;63.71;100961.07;1727987;80;21087;-59
2021/09/15 04:54:00;;;;;;;7.75;4.70;;;;;;;13.69;63.88;100962.52;1742056;80;22169;-67
2021/09/15 04:56:27;;;;;;;8.20;4.60;;;;;;;13.69;64.14;100961.20;1746257;80;21070;-68
2021/09/15 04:58:54;;;;;;;9.23;4.45;;;;;;;13.72;64.32;100970.20;1748300;80;21028;-72
2021/09/15 05:01:22;;;;;;;10.08;4.90;;;;;;;13.75;64.46;100971.23;1739170;81;21094;-66
2021/09/15 05:03:50;;;;;;;8.83;4.45;;;;;;;13.84;64.58;100978.91;1747865;80;21058;-70
2021/09/15 05:06:18;;;;;;;9.95;4.30;;;;;;;13.94;64.52;100974.52;1746462;80;21129;-59
2021/09/15 05:08:44;;;;;;;11.05;4.85;;;;;;;14.06;64.47;100972.63;1741728;80;21529;-59
2021/09/15 05:11:13;;;;;;;9.40;5.87;;;;;;;14.14;64.21;100971.49;1742276;80;21069;-59
2021/09/15 05:13:41;;;;;;;11.68;5.40;;;;;;;14.21;64.09;100976.60;1742744;80;21465;-59
2021/09/15 05:16:08;;;;;;;9.93;4.92;;;;;;;14.25;63.97;100978.00;1720916;81;21035;-59
2021/09/15 05:18:35;;;;;;;8.20;4.53;;;;;;;14.33;63.96;100978.67;1731105;80;21131;-58
2021/09/15 05:21:03;;;;;;;9.20;5.83;;;;;;;14.38;63.63;100980.94;1728243;80;21131;-58
2021/09/15 05:23:30;;;;;;;13.95;8.80;;;;;;;14.43;63.41;100984.02;1727757;80;21126;-59
2021/09/15 05:25:59;;;;;;;9.48;6.67;;;;;;;14.46;63.29;100994.34;1726656;80;21059;-59
2021/09/15 05:28:26;;;;;;;13.20;6.72;;;;;;;14.51;62.89;100992.14;1715875;81;21153;-58
2021/09/15 05:30:53;;;;;;;9.90;5.72;;;;;;;14.54;62.55;100990.55;1690377;81;21145;-58
2021/09/15 05:33:20;;;;;;;7.83;4.62;;;;;;;14.58;62.18;101005.68;1732921;80;21593;-58
2021/09/15 05:35:48;;;;;;;8.15;5.33;;;;;;;14.62;61.96;101000.48;1729950;80;21141;-58
2021/09/15 05:38:15;;;;;;;9.43;4.62;;;;;;;14.71;61.56;101004.13;1729573;80;21093;-61
2021/09/15 05:40:43;;;;;;;10.13;5.50;;;;;;;14.82;61.31;101004.04;1712482;81;22559;-59
2021/09/15 05:43:11;;;;;;;11.45;5.85;;;;;;;14.94;61.23;101002.11;1740742;80;21150;-59
2021/09/15 05:45:38;;;;;;;9.68;5.47;;;;;;;15.01;61.30;101006.75;1730537;80;21467;-59
2021/09/15 05:48:05;;;;;;;8.38;4.35;;;;;;;15.09;60.95;101006.54;1714928;82;21059;-59
2021/09/15 05:50:33;;;;;;;8.35;4.37;;;;;;;15.13;60.58;101006.14;1730246;80;21534;-59
2021/09/15 05:52:59;;;;;;;9.98;4.42;;;;;;;15.19;60.43;101009.54;1727324;80;21595;-60
2021/09/15 05:55:26;;;;;;;8.53;3.50;;;;;;;15.24;59.55;101003.34;1727962;80;21142;-60
2021/09/15 05:57:53;;;;;;;8.90;3.58;;;;;;;15.29;58.33;101006.91;1728400;80;21424;-59
2021/09/15 06:00:20;;;;;;;5.22;2.33;;;;;;;15.34;57.99;101008.66;1728354;80;21118;-59
2021/09/15 06:02:47;;;;;;;8.33;3.42;;;;;;;15.41;57.58;101014.24;1726631;80;21071;-58
2021/09/15 06:05:33;;;;;;;;;;;;;;;15.48;56.71;101007.39;1729544;80;21549;-55
2021/09/15 06:08:00;;;;;;;6.62;3.00;;;;;;;15.54;56.01;101008.17;1719991;81;20258;-57
2021/09/15 06:10:26;;;;;;;6.90;3.05;;;;;;;15.55;54.40;101005.02;1738502;80;21557;-63
2021/09/15 06:12:53;;;;;;;7.17;3.22;;;;;;;15.62;53.67;101007.48;1727867;80;21075;-65
2021/09/15 06:15:19;;;;;;;7.08;3.02;;;;;;;15.67;54.04;101006.58;1725149;80;21568;-63
2021/09/15 06:17:50;;;;;;;8.10;3.17;;;;;;;15.74;54.00;101012.98;1732570;80;21081;-64
2021/09/15 06:20:19;;;;;;;7.17;2.87;;;;;;;15.79;54.44;101017.91;1744615;80;21099;-66
2021/09/15 06:22:57;;;;;;;8.78;2.40;;;;;;;15.85;54.41;101012.01;1728211;80;21136;-65
2021/09/15 06:25:36;;;;;;;8.00;2.47;;;;;;;15.90;51.83;101012.92;1738098;80;21767;-68
2021/09/15 06:28:04;;;;;;;8.70;4.20;;;;;;;15.92;50.66;101018.91;1745307;80;21360;-63
2021/09/15 06:30:30;;;;;;;6.10;2.60;;;;;;;15.95;51.75;101026.59;1741252;80;21139;-66
2021/09/15 06:32:57;;;;;;;6.05;1.80;;;;;;;15.99;51.22;101025.35;1746734;80;21364;-65
2021/09/15 06:35:23;;;;;;;4.78;2.10;;;;;;;16.03;50.43;101025.40;1748246;80;22916;-64
2021/09/15 06:37:50;;;;;;;8.35;2.42;;;;;;;16.08;48.71;101032.44;1747240;80;21093;-69
2021/09/15 06:40:16;;;;;;;6.25;2.47;;;;;;;16.11;47.23;101036.14;1741001;80;21097;-63
2021/09/15 06:42:43;;;;;;;6.22;2.17;;;;;;;16.11;46.99;101034.81;1721992;81;21485;-62
2021/09/15 06:45:11;;;;;;;8.65;3.12;;;;;;;16.12;48.21;101042.28;1751910;80;21114;-61
2021/09/15 06:47:43;;;;;;;6.70;2.33;;;;;;;16.11;48.45;101044.61;1744346;80;21117;-63
2021/09/15 06:50:11;;;;;;;5.72;2.50;;;;;;;16.13;49.30;101042.14;1743512;80;21156;-61
2021/09/15 06:52:40;;;;;;;7.60;2.75;;;;;;;16.16;48.94;101046.34;1742948;80;21250;-56
2021/09/15 06:55:08;;;;;;;7.80;3.62;;;;;;;16.20;49.04;101041.58;1728728;81;21553;-56
2021/09/15 06:57:35;;;;;;;8.15;2.98;;;;;;;16.28;49.41;101048.34;1741331;80;21055;-55
2021/09/15 07:00:09;;;;;;;8.35;3.10;;;;;;;16.34;49.95;101048.60;1745799;80;21926;-57
2021/09/15 07:02:36;;;;;;;6.67;2.45;;;;;;;16.43;50.09;101049.55;1746206;80;21655;-59
2021/09/15 07:05:03;;;;;;;7.25;2.87;;;;;;;16.44;50.27;101047.72;1726719;80;21156;-66
2021/09/15 07:07:33;;;;;;;7.00;2.77;;;;;;;16.39;50.19;101047.31;1678512;83;21121;-63
2021/09/15 07:10:00;;;;;;;9.45;2.90;;;;;;;16.35;50.18;101049.43;1688924;82;21149;-59
2021/09/15 07:12:27;;;;;;;5.85;2.60;;;;;;;16.35;50.69;101042.29;1671133;83;21142;-61
2021/09/15 07:14:53;;;;;;;9.95;3.10;;;;;;;16.39;50.83;101052.16;1696483;82;21098;-60
2021/09/15 07:17:21;;;;;;;5.60;2.35;;;;;;;16.43;51.50;101046.06;1698673;82;21134;-58
2021/09/15 07:19:51;;;;;;;6.15;2.67;;;;;;;16.48;52.26;101048.62;1688720;83;21055;-60
2021/09/15 07:22:20;;;;;;;5.22;2.17;;;;;;;16.53;52.14;101050.34;1688214;83;21024;-60
2021/09/15 07:24:46;;;;;;;5.35;2.58;;;;;;;16.59;51.83;101049.42;1689915;83;23215;-62
2021/09/15 07:27:13;;;;;;;7.15;2.42;;;;;;;16.62;52.21;101050.46;1726931;81;21063;-61
2021/09/15 07:29:39;;;;;;;8.05;3.12;;;;;;;16.66;52.24;101052.69;1732212;80;21058;-61
2021/09/15 07:32:06;;;;;;;4.83;2.27;;;;;;;16.73;51.92;101048.95;1736159;80;21039;-59
2021/09/15 07:34:32;;;;;;;7.05;2.50;;;;;;;16.79;51.72;101043.53;1752448;79;21082;-61
2021/09/15 07:36:59;;;;;;;5.55;2.33;;;;;;;16.85;51.06;101041.66;1729348;80;21277;-64
2021/09/15 07:39:25;;;;;;;7.05;2.37;;;;;;;16.88;50.19;101039.53;1726294;80;21086;-62
2021/09/15 07:41:52;;;;;;;6.72;2.85;;;;;;;16.90;49.66;101037.55;1728243;80;21495;-63
2021/09/15 07:44:19;;;;;;;8.23;2.40;;;;;;;16.84;49.54;101035.48;1717714;80;21055;-61
2021/09/15 07:46:45;;;;;;;8.95;4.25;;;;;;;16.80;48.97;101025.28;1715949;80;21102;-60
2021/09/15 07:49:12;;;;;;;7.65;2.83;;;;;;;16.76;48.89;101028.73;1731502;80;21147;-59
2021/09/15 07:51:38;;;;;;;9.38;2.72;;;;;;;16.78;49.36;101031.22;1728362;80;21063;-59
2021/09/15 07:54:05;;;;;;;6.62;2.30;;;;;;;16.82;49.56;101026.80;1718732;81;21101;-58
2021/09/15 07:56:32;;;;;;;6.53;2.30;;;;;;;16.91;49.97;101022.44;1729838;80;21091;-61
2021/09/15 07:58:58;;;;;;;8.70;3.33;;;;;;;17.00;49.56;101026.05;1733997;80;21083;-63
2021/09/15 08:01:25;;;;;;;6.33;2.15;;;;;;;17.07;48.66;101031.10;1736113;80;21169;-64
2021/09/15 08:03:52;;;;;;;7.58;2.60;;;;;;;17.14;48.54;101026.85;1738086;80;21059;-62
2021/09/15 08:06:19;;;;;;;7.90;2.75;;;;;;;17.17;48.53;101025.23;1732193;80;21046;-57
2021/09/15 08:08:46;;;;;;;7.05;2.62;;;;;;;17.22;48.17;101026.94;1744433;80;21775;-56
2021/09/15 08:11:15;;;;;;;9.58;3.50;;;;;;;17.25;48.29;101031.97;1735888;80;21434;-60
2021/09/15 08:13:42;;;;;;;6.15;2.83;;;;;;;17.30;47.90;101031.98;1733260;80;21983;-60
2021/09/15 08:16:08;;;;;;;7.10;2.67;;;;;;;17.32;48.05;101028.20;1734337;80;21047;-60
2021/09/15 08:18:35;;;;;;;8.43;2.58;;;;;;;17.34;47.61;101025.39;1721440;81;21079;-59
2021/09/15 08:21:01;;;;;;;7.03;2.65;;;;;;;17.35;47.38;101032.38;1746899;80;21067;-60
2021/09/15 08:23:28;;;;;;;6.97;2.80;;;;;;;17.36;47.48;101024.24;1741222;81;21339;-62
2021/09/15 08:25:56;;;;;;;7.45;3.20;;;;;;;17.45;48.16;101025.19;1738065;80;21272;-60
2021/09/15 08:28:23;;;;;;;8.33;3.15;;;;;;;17.52;48.25;101018.76;1742363;80;21062;-59
2021/09/15 08:30:49;;;;;;;7.33;2.95;;;;;;;17.57;47.84;101014.64;1742998;80;21133;-60
2021/09/15 08:33:16;;;;;;;9.78;3.00;;;;;;;17.62;48.19;101013.68;1742744;80;21414;-59
2021/09/15 08:35:42;;;;;;;6.75;2.77;;;;;;;17.68;47.89;101011.39;1741141;80;21121;-61
2021/09/15 08:38:10;;;;;;;8.50;3.47;;;;;;;17.71;47.35;101012.42;1718363;80;21160;-60
2021/09/15 08:40:38;;;;;;;8.45;3.20;;;;;;;17.78;47.30;101012.14;1744488;80;21073;-59
2021/09/15 08:43:04;;;;;;;7.97;3.47;;;;;;;17.82;47.78;101018.33;1744865;80;21085;-58
2021/09/15 08:45:33;;;;;;;12.07;3.92;;;;;;;17.88;47.88;101016.08;1741081;80;21097;-62
2021/09/15 08:48:01;;;;;;;7.30;2.90;;;;;;;17.94;47.60;101010.14;1743800;80;21074;-61
2021/09/15 08:50:27;;;;;;;7.65;3.40;;;;;;;17.98;47.30;101008.31;1738922;80;21139;-59
2021/09/15 08:52:54;;;;;;;9.90;3.90;;;;;;;18.01;47.51;101005.85;1748069;80;21015;-57
2021/09/15 08:55:20;;;;;;;13.10;4.12;;;;;;;18.05;47.29;100998.38;1739263;80;21012;-58
2021/09/15 08:57:46;;;;;;;9.23;3.95;;;;;;;18.07;47.81;100994.58;1738515;80;21059;-61
2021/09/15 09:00:14;;;;;;;11.45;4.30;;;;;;;18.11;47.63;101001.25;1744547;80;21125;-61
2021/09/15 09:02:44;;;;;;;10.70;3.77;;;;;;;18.16;47.38;100996.80;1719999;81;21236;-63
2021/09/15 09:05:10;;;;;;;9.03;3.75;;;;;;;18.19;47.51;100995.16;1721428;80;21102;-60
2021/09/15 09:07:38;;;;;;;8.85;3.62;;;;;;;18.22;47.35;100992.15;1742354;80;21597;-60
2021/09/15 09:10:11;;;;;;;9.05;3.52;;;;;;;18.30;47.02;100989.53;1741661;80;21700;-59
2021/09/15 09:12:41;;;;;;;10.08;3.80;;;;;;;18.36;46.88;100988.91;1749730;80;21102;-58
2021/09/15 09:15:28;;;;;;;9.28;3.58;;;;;;;18.39;46.07;100985.08;1741173;80;21677;-61
2021/09/15 09:18:00;;;;;;;10.30;3.52;;;;;;;18.46;46.76;100987.94;1741612;80;21827;-59
2021/09/15 09:20:31;;;;;;;7.03;2.85;;;;;;;18.52;46.21;100987.30;1734025;80;21059;-59
2021/09/15 09:23:05;;;;;;;6.62;3.33;;;;;;;18.60;45.91;100984.68;1733327;81;21095;-60
2021/09/15 09:25:55;;;;;;;10.25;3.40;;;;;;;18.62;45.19;100984.02;1730916;80;21216;-58
2021/09/15 09:28:40;;;;;;;13.13;3.33;;;;;;;18.62;44.93;100987.19;1733645;80;21103;-60
2021/09/15 09:31:23;;;;;;;8.78;3.20;;;;;;;18.64;45.10;100988.67;1730006;80;21091;-60
2021/09/15 09:34:03;;;;;;;9.93;3.72;;;;;;;18.66;44.73;100987.19;1733431;80;22511;-60
2021/09/15 09:36:30;;;;;;;12.25;3.20;;;;;;;18.68;44.63;100983.38;1730899;80;21093;-58
2021/09/15 09:38:58;;;;;;;7.62;3.02;;;;;;;18.76;43.99;100985.22;1722580;80;21600;-58
2021/09/15 09:41:24;;;;;;;7.22;3.33;;;;;;;18.76;44.85;100975.89;1735154;80;21754;-60
2021/09/15 09:43:54;;;;;;;7.75;2.90;;;;;;;18.83;45.20;100976.11;1723731;80;21482;-60
2021/09/15 09:46:31;;;;;;;7.25;2.62;;;;;;;18.87;45.58;100966.30;1712313;80;21721;-60
2021/09/15 09:49:01;;;;;;;8.45;3.45;;;;;;;18.91;44.65;100965.47;1730595;80;21145;-59
2021/09/15 09:51:36;;;;;;;7.20;2.83;;;;;;;18.91;44.15;100970.80;1744423;80;21484;-59
2021/09/15 09:54:18;;;;;;;;;;;;;;;18.94;44.55;100973.97;1731788;80;21118;-60
2021/09/15 09:56:46;;;;;;;12.65;2.92;;;;;;;18.98;44.18;100966.50;1730700;80;21047;-61
2021/09/15 09:59:13;;;;;;;6.47;2.20;;;;;;;18.99;43.94;100963.33;1731912;80;21090;-61
2021/09/15 10:01:46;;;;;;;6.00;2.30;;;;;;;19.04;44.08;100957.00;1729937;80;21752;-60
2021/09/15 10:04:16;;;;;;;9.25;2.05;;;;;;;19.11;43.25;100958.00;1733229;80;21015;-60
2021/09/15 10:06:44;;;;;;;5.65;2.40;;;;;;;19.17;43.16;100955.20;1733004;80;21093;-55
2021/09/15 10:09:12;;;;;;;5.65;2.52;;;;;;;19.24;43.33;100948.19;1730805;80;21129;-56
2021/09/15 10:11:40;;;;;;;6.67;2.20;;;;;;;19.31;42.00;100950.52;1730215;80;21067;-55
2021/09/15 10:14:15;;;;;;;6.92;2.15;;;;;;;19.35;42.33;100945.20;1728351;81;21082;-55
2021/09/15 10:16:48;;;;;;;6.03;2.37;;;;;;;19.41;41.97;100948.52;1727626;80;21094;-54
2021/09/15 10:19:16;;;;;;;7.17;2.30;;;;;;;19.46;41.82;100940.84;1735927;80;21140;-55
2021/09/15 10:21:43;;;;;;;5.72;2.25;;;;;;;19.50;41.52;100938.67;1744874;80;21082;-55
2021/09/15 10:24:10;;;;;;;5.47;2.25;;;;;;;19.54;41.51;100945.86;1758767;80;21145;-55
2021/09/15 10:26:40;;;;;;;9.25;1.90;;;;;;;19.55;41.53;100939.02;1746552;80;21133;-55
2021/09/15 10:29:28;;;;;;;4.80;1.60;;;;;;;19.59;40.78;100936.84;1746537;80;21545;-55
2021/09/15 10:32:12;;;;;;;6.92;2.08;;;;;;;19.63;40.53;100935.49;1738398;80;21059;-55
2021/09/15 10:34:44;;;;;;;4.80;2.20;;;;;;;19.67;40.67;100928.32;1747252;80;21093;-55
2021/09/15 10:37:22;;;;;;;6.00;2.08;;;;;;;19.68;39.76;100926.48;1742790;80;21110;-55
2021/09/15 10:40:02;;;;;;;6.65;1.95;;;;;;;19.71;40.54;100923.47;1747557;80;21106;-56
2021/09/15 10:42:38;;;;;;;6.75;2.50;;;;;;;19.73;38.59;100922.80;1746611;80;21090;-55
2021/09/15 10:45:20;;;;;;;4.22;1.22;;;;;;;19.74;39.26;100928.48;1745167;80;21208;-55
2021/09/15 10:47:59;;;;;;;6.12;2.00;;;;;;;19.77;39.08;100920.16;1750957;79;21628;-55
2021/09/15 10:50:35;;;;;;;4.30;1.72;;;;;;;19.85;38.90;100916.62;1746514;80;21038;-56
2021/09/15 10:53:12;;;;;;;7.15;2.02;;;;;;;19.88;38.26;100906.12;1741789;80;21548;-56
2021/09/15 10:55:56;;;;;;;4.42;1.42;;;;;;;19.92;38.73;100904.28;1750524;80;21011;-56
2021/09/15 10:58:26;;;;;;;3.95;1.37;;;;;;;19.99;38.78;100911.10;1742653;80;21130;-56
2021/09/15 11:01:01;;;;;;;4.03;1.55;;;;;;;20.04;37.55;100907.41;1728024;80;21082;-57
2021/09/15 11:03:31;;;;;;;4.58;1.50;;;;;;;20.08;36.80;100905.23;1741715;80;21109;-56
2021/09/15 11:06:19;;;;;;;4.25;1.52;;;;;;;20.12;36.76;100905.20;1707567;82;21097;-56
2021/09/15 11:08:49;;;;;;;4.60;1.55;;;;;;;20.18;33.79;100906.67;1690458;83;21154;-57
2021/09/15 11:11:28;;;;;;;4.42;1.37;;;;;;;20.25;33.58;100904.14;1685653;83;21148;-56
2021/09/15 11:14:07;;;;;;;6.10;1.52;;;;;;;20.29;33.91;100901.95;1693027;82;21255;-56
2021/09/15 11:16:39;;;;;;;7.35;1.95;;;;;;;20.35;34.26;100896.74;1691605;82;21309;-55
2021/09/15 11:19:13;;;;;;;3.70;1.50;;;;;;;20.42;35.21;100892.87;1686218;83;21306;-56
2021/09/15 11:21:55;;;;;;;7.22;2.58;;;;;;;20.45;35.39;100896.53;1732722;80;21569;-58
2021/09/15 11:24:25;;;;;;;6.05;2.37;;;;;;;20.53;35.71;100891.66;1732894;80;21445;-55
2021/09/15 11:26:57;;;;;;;5.45;1.57;;;;;;;20.62;36.48;100882.56;1728617;80;21118;-55
2021/09/15 11:29:51;;;;;;;6.42;2.05;;;;;;;20.71;35.66;100883.38;1728421;82;21038;-55
2021/09/15 11:32:15;;;;;;;7.20;2.25;;;;;;;20.77;33.98;100882.16;1712938;81;21055;-55
2021/09/15 11:34:45;;;;;;;5.28;1.77;;;;;;;20.80;33.54;100880.16;1733061;80;21050;-55
2021/09/15 11:37:26;;;;;;;4.80;1.80;;;;;;;20.83;34.68;100877.96;1733366;80;21909;-55
2021/09/15 11:40:04;;;;;;;4.90;1.85;;;;;;;20.91;34.82;100870.36;1734351;80;21074;-54
2021/09/15 11:42:35;;;;;;;4.22;2.05;;;;;;;20.98;34.82;100878.02;1726690;80;21111;-55
2021/09/15 11:45:14;;;;;;;6.03;1.80;;;;;;;21.05;34.90;100870.11;1739005;80;21078;-55
2021/09/15 11:47:45;;;;;;;5.45;1.92;;;;;;;21.15;34.20;100866.68;1727094;80;21656;-54